| time (UTC) | temp F | wind direction | speed MPH | gust MPH | rain 1hr in | rain 24hr in | rain mn in | humidity % | barometer mb |
| 20260508084629 | 45 | 113 | 1.0 | 2.0 | 0.00 | 0.00 | 0.00 | 55 | 1013.5 |
| 20260508083638 | 46 | 113 | 1.0 | 3.0 | 0.00 | 0.00 | 0.00 | 53 | 1013.8 |
| 20260508082625 | 45 | 117 | 0.0 | 2.0 | 0.00 | 0.00 | 0.00 | 55 | 1013.8 |
| 20260508081615 | 43 | 117 | 1.0 | 2.0 | 0.00 | 0.00 | 0.00 | 59 | 1013.9 |
| 20260508080645 | 44 | 117 | 3.0 | 6.0 | 0.00 | 0.00 | 0.00 | 53 | 1013.8 |
| 20260508075624 | 47 | 355 | 2.0 | 4.0 | 0.00 | 0.00 | 0.00 | 51 | 1013.6 |
| 20260508074613 | 47 | 15 | 1.0 | 4.0 | 0.00 | 0.00 | 0.00 | 52 | 1013.7 |
| 20260508073620 | 46 | 67 | 1.0 | 4.0 | 0.00 | 0.00 | 0.00 | 53 | 1013.9 |
| 20260508072624 | 46 | 73 | 3.0 | 6.0 | 0.00 | 0.00 | 0.00 | 52 | 1014.0 |
| 20260508071616 | 47 | 355 | 2.0 | 5.0 | 0.00 | 0.00 | 0.00 | 49 | 1014.0 |
| 20260508070624 | 49 | 59 | 0.0 | 2.0 | 0.00 | 0.00 | 0.00 | 46 | 1013.9 |
| 20260508065621 | 50 | 59 | 1.0 | 2.0 | 0.00 | 0.00 | 0.00 | 46 | 1013.8 |
| 20260508064645 | 50 | 61 | 1.0 | 2.0 | 0.00 | 0.00 | 0.00 | 46 | 1013.8 |
| 20260508063635 | 50 | 61 | 1.0 | 5.0 | 0.00 | 0.00 | 0.00 | 46 | 1013.8 |
| 20260508062624 | 49 | 59 | 2.0 | 5.0 | 0.00 | 0.00 | 0.00 | 46 | 1013.8 |
| 20260508061628 | 51 | 57 | 3.0 | 3.0 | 0.00 | 0.00 | 0.00 | 42 | 1013.8 |
| 20260508060613 | 53 | 57 | 0.0 | 1.0 | 0.00 | 0.00 | 0.00 | 42 | 1013.8 |
| 20260508055626 | 53 | 57 | 0.0 | 2.0 | 0.00 | 0.00 | 0.00 | 41 | 1013.9 |
| 20260508054616 | 54 | 57 | 0.0 | 1.0 | 0.00 | 0.00 | 0.00 | 40 | 1013.8 |
| 20260508053631 | 54 | 57 | 0.0 | 1.0 | 0.00 | 0.00 | 0.00 | 40 | 1013.9 |
| 20260508052620 | 54 | 57 | 0.0 | 2.0 | 0.00 | 0.00 | 0.00 | 39 | 1013.9 |
| 20260508051629 | 54 | 57 | 0.0 | 2.0 | 0.00 | 0.00 | 0.00 | 40 | 1013.9 |
| 20260508050636 | 53 | 57 | 1.0 | 2.0 | 0.00 | 0.00 | 0.00 | 41 | 1013.8 |
| 20260508045636 | 54 | 57 | 0.0 | 1.0 | 0.00 | 0.00 | 0.00 | 40 | 1013.7 |
| 20260508044622 | 53 | 57 | 0.0 | 3.0 | 0.00 | 0.00 | 0.00 | 40 | 1013.6 |
| 20260508043626 | 53 | 57 | 2.0 | 4.0 | 0.00 | 0.00 | 0.00 | 39 | 1013.7 |
| 20260508042613 | 54 | 57 | 1.0 | 4.0 | 0.00 | 0.00 | 0.00 | 38 | 1013.5 |
| 20260508041621 | 56 | 57 | 2.0 | 3.0 | 0.00 | 0.00 | 0.00 | 35 | 1013.4 |
| 20260508040646 | 58 | 57 | 1.0 | 4.0 | 0.00 | 0.00 | 0.00 | 34 | 1013.5 |
| 20260508035623 | 59 | 56 | 1.0 | 3.0 | 0.00 | 0.00 | 0.00 | 33 | 1013.3 |
| 20260508034631 | 60 | 56 | 1.0 | 4.0 | 0.00 | 0.00 | 0.00 | 32 | 1013.3 |
| 20260508033618 | 62 | 350 | 1.0 | 3.0 | 0.00 | 0.00 | 0.00 | 30 | 1013.1 |
| 20260508032630 | 63 | 301 | 0.0 | 2.0 | 0.00 | 0.00 | 0.00 | 29 | 1012.9 |
| 20260508031617 | 64 | 301 | 0.0 | 3.0 | 0.00 | 0.00 | 0.00 | 28 | 1012.8 |
| 20260508030623 | 65 | 291 | 3.0 | 6.0 | 0.00 | 0.00 | 0.00 | 27 | 1012.7 |
| 20260508025625 | 66 | 304 | 1.0 | 3.0 | 0.00 | 0.00 | 0.00 | 28 | 1012.7 |
| 20260508024617 | 66 | 315 | 1.0 | 4.0 | 0.00 | 0.00 | 0.00 | 28 | 1012.5 |
| 20260508023620 | 68 | 325 | 1.0 | 4.0 | 0.00 | 0.00 | 0.00 | 26 | 1012.4 |
| 20260508022629 | 68 | 305 | 3.0 | 5.0 | 0.00 | 0.00 | 0.00 | 25 | 1012.3 |
| 20260508021616 | 70 | 311 | 3.0 | 7.0 | 0.00 | 0.00 | 0.00 | 25 | 1012.2 |
| 20260508020623 | 70 | 328 | 3.0 | 10.0 | 0.00 | 0.00 | 0.00 | 24 | 1011.9 |
| 20260508015620 | 71 | 290 | 4.0 | 12.0 | 0.00 | 0.00 | 0.00 | 23 | 1011.9 |
| 20260508014627 | 72 | 306 | 6.0 | 14.0 | 0.00 | 0.00 | 0.00 | 23 | 1011.8 |
| 20260508013651 | 72 | 298 | 8.0 | 13.0 | 0.00 | 0.00 | 0.00 | 23 | 1011.7 |
| 20260508012621 | 73 | 329 | 6.0 | 12.0 | 0.00 | 0.00 | 0.00 | 22 | 1011.8 |
| 20260508011630 | 73 | 338 | 7.0 | 13.0 | 0.00 | 0.00 | 0.00 | 22 | 1011.6 |
| 20260508010620 | 73 | 309 | 6.0 | 12.0 | 0.00 | 0.00 | 0.00 | 22 | 1011.7 |
| 20260508005620 | 74 | 258 | 6.0 | 13.0 | 0.00 | 0.00 | 0.00 | 21 | 1011.8 |
| 20260508004630 | 74 | 304 | 5.0 | 12.0 | 0.00 | 0.00 | 0.00 | 21 | 1011.8 |
| 20260508003619 | 74 | 301 | 5.0 | 12.0 | 0.00 | 0.00 | 0.00 | 19 | 1011.9 |
| 20260508002625 | 75 | 292 | 5.0 | 11.0 | 0.00 | 0.00 | 0.00 | 22 | 1011.9 |
| 20260508001614 | 75 | 239 | 7.0 | 13.0 | 0.00 | 0.00 | 0.00 | 23 | 1011.9 |
| 20260508000645 | 75 | 236 | 5.0 | 9.0 | 0.00 | 0.00 | 0.00 | 23 | 1012.1 |
| 20260507235625 | 75 | 297 | 6.0 | 12.0 | 0.00 | 0.00 | 0.00 | 23 | 1012.1 |
| 20260507234615 | 75 | 275 | 5.0 | 13.0 | 0.00 | 0.00 | 0.00 | 23 | 1012.2 |
| 20260507233622 | 75 | 292 | 7.0 | 14.0 | 0.00 | 0.00 | 0.00 | 22 | 1012.3 |
| 20260507232629 | 76 | 272 | 5.0 | 11.0 | 0.00 | 0.00 | 0.00 | 21 | 1012.1 |
| 20260507231620 | 75 | 249 | 7.0 | 13.0 | 0.00 | 0.00 | 0.00 | 21 | 1012.2 |
| 20260507230628 | 75 | 295 | 5.0 | 13.0 | 0.00 | 0.00 | 0.00 | 21 | 1012.3 |
| 20260507225628 | 75 | 284 | 5.0 | 11.0 | 0.00 | 0.00 | 0.00 | 22 | 1012.4 |
| 20260507224615 | 74 | 291 | 4.0 | 9.0 | 0.00 | 0.00 | 0.00 | 21 | 1012.5 |
| 20260507223626 | 74 | 335 | 4.0 | 9.0 | 0.00 | 0.00 | 0.00 | 22 | 1012.7 |
| 20260507222612 | 73 | 294 | 2.0 | 7.0 | 0.00 | 0.00 | 0.00 | 23 | 1012.8 |
| 20260507221618 | 72 | 347 | 3.0 | 9.0 | 0.00 | 0.00 | 0.00 | 22 | 1013.0 |
| 20260507220627 | 72 | 346 | 4.0 | 9.0 | 0.00 | 0.00 | 0.00 | 24 | 1013.2 |
| 20260507215631 | 72 | 304 | 0.0 | 11.0 | 0.00 | 0.00 | 0.00 | 22 | 1013.3 |
| 20260507214618 | 72 | 296 | 5.0 | 9.0 | 0.00 | 0.00 | 0.00 | 22 | 1013.4 |
| 20260507213624 | 72 | 306 | 5.0 | 12.0 | 0.00 | 0.00 | 0.00 | 23 | 1013.5 |
| 20260507212631 | 72 | 292 | 6.0 | 12.0 | 0.00 | 0.00 | 0.00 | 21 | 1013.7 |
| 20260507211643 | 73 | 350 | 5.0 | 11.0 | 0.00 | 0.00 | 0.00 | 22 | 1013.9 |
| 20260507210631 | 72 | 325 | 6.0 | 14.0 | 0.00 | 0.00 | 0.00 | 22 | 1013.9 |
| 20260507205628 | 72 | 329 | 8.0 | 14.0 | 0.00 | 0.00 | 0.00 | 22 | 1013.8 |
| 20260507204615 | 73 | 309 | 6.0 | 11.0 | 0.00 | 0.00 | 0.00 | 21 | 1013.9 |
| 20260507203626 | 73 | 282 | 5.0 | 11.0 | 0.00 | 0.00 | 0.00 | 21 | 1014.0 |
| 20260507202653 | 73 | 275 | 3.0 | 13.0 | 0.00 | 0.00 | 0.00 | 21 | 1013.9 |
| 20260507201621 | 73 | 310 | 6.0 | 12.0 | 0.00 | 0.00 | 0.00 | 20 | 1014.0 |
| 20260507200631 | 73 | 263 | 4.0 | 11.0 | 0.00 | 0.00 | 0.00 | 19 | 1014.2 |
| 20260507195614 | 73 | 257 | 6.0 | 14.0 | 0.00 | 0.00 | 0.00 | 20 | 1014.3 |
| 20260507194622 | 73 | 240 | 7.0 | 14.0 | 0.00 | 0.00 | 0.00 | 21 | 1014.2 |
| 20260507193632 | 72 | 302 | 2.0 | 13.0 | 0.00 | 0.00 | 0.00 | 22 | 1014.5 |
| 20260507192619 | 72 | 255 | 4.0 | 14.0 | 0.00 | 0.00 | 0.00 | 24 | 1014.5 |
| 20260507191632 | 71 | 234 | 4.0 | 9.0 | 0.00 | 0.00 | 0.00 | 24 | 1014.7 |
| 20260507190616 | 70 | 237 | 6.0 | 10.0 | 0.00 | 0.00 | 0.00 | 26 | 1014.8 |
| 20260507185652 | 70 | 166 | 6.0 | 10.0 | 0.00 | 0.00 | 0.00 | 25 | 1014.9 |
| 20260507184620 | 69 | 243 | 2.0 | 9.0 | 0.00 | 0.00 | 0.00 | 26 | 1015.0 |
| 20260507183615 | 70 | 240 | 7.0 | 13.0 | 0.00 | 0.00 | 0.00 | 26 | 1015.3 |
| 20260507182625 | 69 | 202 | 7.0 | 12.0 | 0.00 | 0.00 | 0.00 | 26 | 1015.2 |
| 20260507181614 | 69 | 211 | 5.0 | 11.0 | 0.00 | 0.00 | 0.00 | 26 | 1015.3 |
| 20260507180644 | 69 | 140 | 5.0 | 9.0 | 0.00 | 0.00 | 0.00 | 26 | 1015.4 |
| 20260507175641 | 68 | 90 | 4.0 | 10.0 | 0.00 | 0.00 | 0.00 | 25 | 1015.4 |
| 20260507174647 | 67 | 234 | 7.0 | 13.0 | 0.00 | 0.00 | 0.00 | 26 | 1015.4 |
| 20260507173618 | 66 | 165 | 7.0 | 12.0 | 0.00 | 0.00 | 0.00 | 27 | 1015.5 |
| 20260507172625 | 66 | 213 | 7.0 | 11.0 | 0.00 | 0.00 | 0.00 | 27 | 1015.5 |
| 20260507171631 | 66 | 202 | 5.0 | 10.0 | 0.00 | 0.00 | 0.00 | 27 | 1015.5 |
| 20260507170640 | 65 | 171 | 7.0 | 16.0 | 0.00 | 0.00 | 0.00 | 27 | 1015.6 |
| 20260507165625 | 66 | 188 | 9.0 | 14.0 | 0.00 | 0.00 | 0.00 | 27 | 1015.6 |
| 20260507164631 | 66 | 201 | 9.0 | 14.0 | 0.00 | 0.00 | 0.00 | 27 | 1015.6 |
| 20260507163621 | 65 | 187 | 8.0 | 12.0 | 0.00 | 0.00 | 0.00 | 28 | 1015.7 |
| 20260507162627 | 64 | 215 | 4.0 | 10.0 | 0.00 | 0.00 | 0.00 | 28 | 1015.7 |
| 20260507161652 | 64 | 202 | 6.0 | 11.0 | 0.00 | 0.00 | 0.00 | 28 | 1015.9 |
| 20260507160623 | 63 | 213 | 8.0 | 15.0 | 0.00 | 0.00 | 0.00 | 28 | 1016.0 |
| 20260507155622 | 63 | 200 | 7.0 | 14.0 | 0.00 | 0.00 | 0.00 | 28 | 1016.1 |
| 20260507154648 | 64 | 222 | 8.0 | 13.0 | 0.00 | 0.00 | 0.00 | 29 | 1016.1 |
| 20260507153613 | 63 | 202 | 8.0 | 16.0 | 0.00 | 0.00 | 0.00 | 29 | 1016.2 |
| 20260507152627 | 62 | 186 | 9.0 | 16.0 | 0.00 | 0.00 | 0.00 | 30 | 1016.2 |
| 20260507151616 | 61 | 219 | 7.0 | 16.0 | 0.00 | 0.00 | 0.00 | 30 | 1016.4 |
| 20260507150623 | 61 | 188 | 9.0 | 15.0 | 0.00 | 0.00 | 0.00 | 31 | 1016.4 |
| 20260507145622 | 60 | 158 | 10.0 | 15.0 | 0.00 | 0.00 | 0.00 | 32 | 1016.4 |
| 20260507144615 | 59 | 360 | 9.0 | 20.0 | 0.00 | 0.00 | 0.00 | 33 | 1016.4 |
| 20260507143621 | 57 | 199 | 6.0 | 11.0 | 0.00 | 0.00 | 0.00 | 37 | 1016.4 |
| 20260507142612 | 55 | 38 | 1.0 | 3.0 | 0.00 | 0.00 | 0.00 | 44 | 1016.4 |
| 20260507141642 | 54 | 360 | 0.0 | 2.0 | 0.00 | 0.00 | 0.00 | 46 | 1016.3 |
| 20260507140615 | 53 | 38 | 0.0 | 1.0 | 0.00 | 0.00 | 0.00 | 47 | 1016.3 |
| 20260507135616 | 53 | 38 | 0.0 | 1.0 | 0.00 | 0.00 | 0.00 | 47 | 1016.4 |
| 20260507134624 | 52 | 38 | 0.0 | 1.0 | 0.00 | 0.00 | 0.00 | 47 | 1016.4 |
| 20260507133630 | 52 | 38 | 0.0 | 4.0 | 0.00 | 0.00 | 0.00 | 48 | 1016.6 |
| 20260507132622 | 51 | 38 | 1.0 | 2.0 | 0.00 | 0.00 | 0.00 | 48 | 1016.4 |
| 20260507131626 | 51 | 38 | 1.0 | 4.0 | 0.00 | 0.00 | 0.00 | 49 | 1016.1 |
| 20260507130634 | 50 | 38 | 1.0 | 3.0 | 0.00 | 0.00 | 0.00 | 49 | 1015.8 |
| 20260507125652 | 50 | 38 | 0.0 | 0.0 | 0.00 | 0.00 | 0.00 | 49 | 1015.7 |
| 20260507124619 | 50 | 38 | 0.0 | 2.0 | 0.00 | 0.00 | 0.00 | 49 | 1015.7 |
| 20260507123631 | 50 | 38 | 0.0 | 3.0 | 0.00 | 0.00 | 0.00 | 51 | 1015.7 |
| 20260507122639 | 48 | 38 | 0.0 | 0.0 | 0.00 | 0.00 | 0.00 | 55 | 1015.9 |
| 20260507121625 | 48 | 38 | 0.0 | 0.0 | 0.00 | 0.00 | 0.00 | 55 | 1015.9 |
| 20260507120614 | 48 | 38 | 0.0 | 0.0 | 0.00 | 0.00 | 0.00 | 55 | 1015.9 |
| 20260507115618 | 47 | 38 | 0.0 | 0.0 | 0.00 | 0.00 | 0.00 | 56 | 1016.0 |
| 20260507114628 | 48 | 38 | 0.0 | 2.0 | 0.00 | 0.00 | 0.00 | 55 | 1016.0 |
| 20260507113638 | 48 | 38 | 0.0 | 0.0 | 0.00 | 0.00 | 0.00 | 54 | 1016.1 |
| 20260507112628 | 47 | 38 | 0.0 | 2.0 | 0.00 | 0.00 | 0.00 | 57 | 1016.2 |
| 20260507111621 | 47 | 38 | 0.0 | 0.0 | 0.00 | 0.00 | 0.00 | 56 | 1016.3 |
| 20260507110628 | 47 | 38 | 0.0 | 1.0 | 0.00 | 0.00 | 0.00 | 57 | 1016.4 |
| 20260507105625 | 46 | 38 | 0.0 | 1.0 | 0.00 | 0.00 | 0.00 | 57 | 1016.3 |
| 20260507104614 | 46 | 38 | 0.0 | 1.0 | 0.00 | 0.00 | 0.00 | 57 | 1016.4 |
| 20260507103626 | 46 | 38 | 0.0 | 0.0 | 0.00 | 0.00 | 0.00 | 59 | 1016.4 |
| 20260507102616 | 46 | 38 | 0.0 | 0.0 | 0.00 | 0.00 | 0.00 | 59 | 1016.5 |
| 20260507101623 | 46 | 38 | 0.0 | 1.0 | 0.00 | 0.00 | 0.00 | 59 | 1016.7 |
| 20260507100631 | 46 | 38 | 0.0 | 1.0 | 0.00 | 0.00 | 0.00 | 58 | 1016.6 |
| 20260507095631 | 45 | 38 | 0.0 | 1.0 | 0.00 | 0.00 | 0.00 | 57 | 1016.7 |
| 20260507094620 | 45 | 38 | 1.0 | 4.0 | 0.00 | 0.00 | 0.00 | 56 | 1016.8 |
| 20260507093630 | 46 | 331 | 2.0 | 3.0 | 0.00 | 0.00 | 0.00 | 56 | 1016.8 |
| 20260507092620 | 46 | 329 | 1.0 | 3.0 | 0.00 | 0.00 | 0.00 | 55 | 1016.9 |
| 20260507091630 | 46 | 329 | 0.0 | 3.0 | 0.00 | 0.00 | 0.00 | 54 | 1016.8 |
| 20260507090616 | 47 | 329 | 1.0 | 3.0 | 0.00 | 0.00 | 0.00 | 52 | 1016.7 |
| 20260507085614 | 47 | 329 | 1.0 | 2.0 | 0.00 | 0.00 | 0.00 | 50 | 1016.7 |